createdAt,value
2018-03-06T00:01:46.856Z,12.40
2018-03-06T00:04:14.715Z,12.30
2018-03-06T00:06:42.550Z,12.30
2018-03-06T00:09:10.378Z,12.30
2018-03-06T00:11:38.163Z,12.20
2018-03-06T00:14:05.974Z,12.30
2018-03-06T00:16:33.784Z,12.30
2018-03-06T00:19:01.635Z,12.40
2018-03-06T00:21:29.507Z,12.40
2018-03-06T00:23:58.851Z,12.50
2018-03-06T00:26:27.435Z,12.40
2018-03-06T00:28:56.037Z,12.40
2018-03-06T00:31:23.864Z,12.40
2018-03-06T00:33:51.839Z,12.30
2018-03-06T00:36:19.704Z,12.30
2018-03-06T00:38:47.492Z,12.30
2018-03-06T00:41:15.551Z,12.20
2018-03-06T00:43:43.392Z,12.20
2018-03-06T00:46:11.213Z,12.10
2018-03-06T00:48:39.798Z,12.10
2018-03-06T00:51:07.615Z,12.10
2018-03-06T00:53:36.239Z,12.20
2018-03-06T00:56:04.120Z,12.10
2018-03-06T00:58:31.944Z,12.20
2018-03-06T01:00:59.893Z,12.20
2018-03-06T01:03:27.712Z,12.30
2018-03-06T01:05:55.843Z,12.30
2018-03-06T01:08:23.661Z,12.30
2018-03-06T01:10:51.516Z,12.30
2018-03-06T01:13:19.507Z,12.30
2018-03-06T01:15:47.390Z,12.30
2018-03-06T01:18:15.211Z,12.30
2018-03-06T01:20:42.994Z,12.30
2018-03-06T01:23:10.775Z,12.30
2018-03-06T01:25:38.638Z,12.20
2018-03-06T01:28:06.472Z,12.30
2018-03-06T01:30:34.267Z,12.40
2018-03-06T01:33:02.115Z,12.50
2018-03-06T01:35:29.906Z,12.50
2018-03-06T01:37:57.722Z,12.50
2018-03-06T01:40:25.548Z,12.50
2018-03-06T01:42:53.367Z,12.40
2018-03-06T01:45:21.160Z,12.30
2018-03-06T01:47:49.831Z,12.30
2018-03-06T01:50:17.703Z,12.20
2018-03-06T01:52:45.483Z,12.20
2018-03-06T01:55:13.257Z,12.20
2018-03-06T01:57:41.099Z,12.10
2018-03-06T02:00:08.917Z,12.10
2018-03-06T02:02:37.492Z,12.10
2018-03-06T02:05:06.070Z,11.90
2018-03-06T02:07:34.655Z,11.80
2018-03-06T02:10:02.503Z,11.80
2018-03-06T02:12:30.391Z,11.80
2018-03-06T02:14:59.086Z,11.70
2018-03-06T02:17:27.631Z,11.70
2018-03-06T02:19:55.450Z,11.70
2018-03-06T02:22:23.266Z,11.60
2018-03-06T02:24:51.913Z,11.60
2018-03-06T02:27:19.733Z,11.60
2018-03-06T02:29:48.296Z,11.50
2018-03-06T02:32:16.133Z,11.50
2018-03-06T02:34:43.954Z,11.50
2018-03-06T02:37:12.512Z,11.60
2018-03-06T02:39:41.148Z,11.50
2018-03-06T02:42:08.974Z,11.40
2018-03-06T02:44:36.794Z,11.40
2018-03-06T02:47:04.623Z,11.40
2018-03-06T02:49:33.238Z,11.40
2018-03-06T02:52:01.039Z,11.40
2018-03-06T02:54:28.826Z,11.40
2018-03-06T02:56:56.690Z,11.30
2018-03-06T02:59:25.132Z,11.40
2018-03-06T03:01:52.964Z,11.30
2018-03-06T03:04:20.796Z,11.30
2018-03-06T03:06:49.394Z,11.20
2018-03-06T03:09:17.227Z,11.20
2018-03-06T03:11:45.051Z,11.10
2018-03-06T03:14:12.845Z,11.10
2018-03-06T03:16:40.686Z,11.10
2018-03-06T03:19:08.489Z,11.10
2018-03-06T03:21:37.220Z,11.10
2018-03-06T03:24:05.096Z,11.10
2018-03-06T03:26:32.982Z,11.10
2018-03-06T03:29:00.764Z,11.20
2018-03-06T03:31:29.373Z,11.40
2018-03-06T03:33:57.914Z,11.50
2018-03-06T03:36:25.696Z,11.50
2018-03-06T03:38:54.372Z,11.80
2018-03-06T03:41:22.179Z,11.70
2018-03-06T03:43:50.763Z,11.90
2018-03-06T03:46:18.594Z,11.90
2018-03-06T03:48:46.437Z,12.00
2018-03-06T03:51:14.288Z,11.90
2018-03-06T03:53:42.081Z,11.90
2018-03-06T03:56:11.682Z,11.80
2018-03-06T03:58:39.590Z,11.80
2018-03-06T04:01:08.184Z,11.80
2018-03-06T04:03:35.987Z,11.70
2018-03-06T04:06:03.844Z,11.80
2018-03-06T04:08:31.666Z,11.80
2018-03-06T04:10:59.491Z,11.80
2018-03-06T04:13:27.313Z,11.80
2018-03-06T04:15:55.980Z,11.80
2018-03-06T04:18:24.548Z,11.80
2018-03-06T04:20:53.160Z,11.90
2018-03-06T04:23:20.968Z,11.90
2018-03-06T04:25:48.787Z,11.90
2018-03-06T04:28:16.641Z,11.80
2018-03-06T04:30:45.323Z,11.80
2018-03-06T04:33:13.883Z,11.80
2018-03-06T04:35:41.680Z,11.80
2018-03-06T04:38:09.538Z,11.80
2018-03-06T04:40:37.340Z,11.70
2018-03-06T04:43:05.232Z,11.60
2018-03-06T04:45:33.045Z,11.70
2018-03-06T04:48:00.872Z,11.80
2018-03-06T04:50:28.688Z,11.90
2018-03-06T04:52:56.503Z,12.20
2018-03-06T04:55:24.370Z,12.40
2018-03-06T04:57:52.199Z,12.60
2018-03-06T05:00:20.048Z,12.80
2018-03-06T05:02:47.843Z,13.10
2018-03-06T05:05:15.729Z,13.10
2018-03-06T05:07:43.575Z,13.10
2018-03-06T05:10:11.423Z,13.20
2018-03-06T05:12:39.280Z,13.20
2018-03-06T05:15:07.159Z,13.20
2018-03-06T05:17:34.984Z,13.20
2018-03-06T05:20:02.918Z,13.20
2018-03-06T05:22:31.472Z,13.20
2018-03-06T05:24:59.292Z,13.20
2018-03-06T05:27:27.875Z,13.40
2018-03-06T05:29:56.497Z,13.40
2018-03-06T05:32:24.440Z,13.40
2018-03-06T05:34:52.274Z,13.40
2018-03-06T05:37:20.113Z,13.30
2018-03-06T05:39:48.698Z,13.20
2018-03-06T05:42:16.528Z,13.20
2018-03-06T05:44:44.410Z,13.20
2018-03-06T05:47:12.322Z,13.10
2018-03-06T05:49:40.987Z,13.10
2018-03-06T05:52:08.767Z,13.10
2018-03-06T05:54:36.611Z,13.10
2018-03-06T05:57:04.399Z,13.10
2018-03-06T05:59:33.014Z,13.00
2018-03-06T06:02:00.827Z,13.00
2018-03-06T06:04:28.638Z,13.00
2018-03-06T06:06:57.220Z,13.00
2018-03-06T06:09:25.040Z,13.00
2018-03-06T06:11:52.855Z,13.00
2018-03-06T06:14:21.435Z,13.00
2018-03-06T06:16:49.359Z,13.00
2018-03-06T06:19:17.241Z,13.10
2018-03-06T06:21:45.033Z,13.20
2018-03-06T06:24:12.816Z,13.20
2018-03-06T06:26:41.349Z,13.20
2018-03-06T06:29:09.136Z,13.20
2018-03-06T06:31:36.896Z,13.20
2018-03-06T06:34:04.697Z,13.30
2018-03-06T06:36:32.472Z,13.30
2018-03-06T06:39:00.303Z,13.40
2018-03-06T06:41:28.154Z,13.50
2018-03-06T06:43:55.922Z,13.50
2018-03-06T06:46:57.676Z,13.50
2018-03-06T06:49:25.487Z,13.40
2018-03-06T06:51:53.276Z,13.40
2018-03-06T06:54:21.109Z,13.40
2018-03-06T06:56:49.707Z,13.60
2018-03-06T06:59:17.496Z,13.60
2018-03-06T07:01:45.295Z,13.70
2018-03-06T07:04:13.091Z,13.70
2018-03-06T07:06:40.897Z,13.70
2018-03-06T07:09:08.703Z,13.70
2018-03-06T07:11:37.311Z,13.80
2018-03-06T07:14:05.127Z,13.80
2018-03-06T07:16:32.941Z,13.80
2018-03-06T07:19:00.787Z,13.80
2018-03-06T07:21:29.375Z,13.90
2018-03-06T07:23:58.061Z,14.00
2018-03-06T07:26:26.663Z,14.00
2018-03-06T07:28:54.677Z,14.00
2018-03-06T07:31:22.468Z,14.00
2018-03-06T07:33:51.024Z,14.00
2018-03-06T07:36:18.820Z,14.00
2018-03-06T07:38:47.433Z,14.00
2018-03-06T07:41:15.382Z,14.00
2018-03-06T07:43:43.940Z,13.90
2018-03-06T07:46:11.692Z,13.90
2018-03-06T07:48:39.455Z,13.80
2018-03-06T07:51:07.396Z,13.80
2018-03-06T07:53:35.176Z,13.80
2018-03-06T07:56:02.990Z,13.80
2018-03-06T07:58:30.755Z,13.80
2018-03-06T08:00:58.537Z,13.80
2018-03-06T08:03:26.367Z,13.80
2018-03-06T08:05:54.223Z,13.80
2018-03-06T08:08:22.894Z,13.80
2018-03-06T08:10:50.691Z,13.80
2018-03-06T08:13:19.442Z,13.90
2018-03-06T08:15:47.320Z,13.90
2018-03-06T08:18:15.342Z,14.10
2018-03-06T08:20:43.418Z,14.10
2018-03-06T08:23:11.649Z,14.30
2018-03-06T08:25:40.233Z,14.80
2018-03-06T08:28:08.785Z,15.20
2018-03-06T08:30:36.759Z,15.10
2018-03-06T08:33:04.565Z,15.30
2018-03-06T08:35:32.436Z,15.30
2018-03-06T08:38:00.268Z,15.60
2018-03-06T08:40:28.071Z,16.10
2018-03-06T08:42:55.867Z,16.40
2018-03-06T08:45:23.681Z,16.10
2018-03-06T08:47:52.288Z,16.00
2018-03-06T08:50:20.156Z,15.90
2018-03-06T08:52:48.024Z,15.80
2018-03-06T08:55:15.892Z,15.60
2018-03-06T08:57:43.741Z,15.60
2018-03-06T09:00:11.756Z,15.60
2018-03-06T09:02:39.560Z,15.70
2018-03-06T09:05:08.633Z,16.20
2018-03-06T09:07:36.805Z,16.20
2018-03-06T09:10:04.668Z,16.40
2018-03-06T09:12:32.947Z,16.80
2018-03-06T09:15:00.967Z,17.70
2018-03-06T09:17:32.177Z,17.60
2018-03-06T09:20:00.068Z,17.10
2018-03-06T09:22:28.031Z,16.80
2018-03-06T09:24:55.960Z,16.50
2018-03-06T09:27:24.199Z,16.50
2018-03-06T09:29:52.185Z,16.50
2018-03-06T09:32:20.387Z,16.70
2018-03-06T09:34:48.231Z,18.00
2018-03-06T09:37:16.095Z,19.60
2018-03-06T09:39:43.958Z,20.40
2018-03-06T09:42:11.760Z,20.30
2018-03-06T09:44:40.468Z,21.50
2018-03-06T09:47:08.358Z,21.50
2018-03-06T09:49:36.243Z,21.70
2018-03-06T09:52:04.431Z,21.70
2018-03-06T09:54:32.252Z,22.10
2018-03-06T09:57:00.268Z,22.20
2018-03-06T09:59:28.172Z,21.30
2018-03-06T10:01:56.223Z,19.90
2018-03-06T10:04:24.590Z,18.70
2018-03-06T10:06:52.540Z,17.90
2018-03-06T10:09:20.890Z,17.80
2018-03-06T10:11:50.037Z,17.10
2018-03-06T10:14:18.740Z,17.00
2018-03-06T10:16:47.006Z,16.90
2018-03-06T10:19:15.679Z,16.70
2018-03-06T10:21:43.690Z,16.70
2018-03-06T10:24:11.728Z,16.40
2018-03-06T10:26:40.603Z,16.10
2018-03-06T10:29:09.194Z,16.10
2018-03-06T10:31:38.077Z,16.20
2018-03-06T10:34:07.489Z,16.30
2018-03-06T10:36:36.536Z,16.20
2018-03-06T10:39:04.856Z,16.20
2018-03-06T10:41:33.876Z,16.10
2018-03-06T10:44:01.823Z,16.10
2018-03-06T10:46:30.416Z,16.30
2018-03-06T10:48:59.043Z,16.50
2018-03-06T10:51:27.089Z,16.40
2018-03-06T10:53:55.171Z,16.50
2018-03-06T10:56:23.344Z,16.50
2018-03-06T10:58:51.480Z,16.50
2018-03-06T11:01:25.145Z,16.30
2018-03-06T11:03:53.042Z,16.30
2018-03-06T11:06:21.832Z,16.30
2018-03-06T11:08:50.382Z,16.40
2018-03-06T11:11:18.626Z,16.40
2018-03-06T11:13:46.762Z,16.60
2018-03-06T11:16:15.753Z,17.60
2018-03-06T11:18:44.747Z,17.70
2018-03-06T11:21:13.845Z,17.90
2018-03-06T11:23:42.692Z,18.20
2018-03-06T11:26:10.940Z,18.20
2018-03-06T11:28:39.045Z,18.60
2018-03-06T11:31:07.244Z,18.90
2018-03-06T11:33:35.325Z,19.80
2018-03-06T11:36:04.182Z,19.70
2018-03-06T11:38:32.284Z,19.70
2018-03-06T11:41:01.170Z,18.10
2018-03-06T11:43:29.955Z,18.50
2018-03-06T11:45:58.928Z,19.10
2018-03-06T11:48:27.105Z,19.10
2018-03-06T11:50:55.176Z,19.00
2018-03-06T11:53:23.374Z,19.70
2018-03-06T11:55:52.342Z,20.90
2018-03-06T11:58:21.368Z,20.90
2018-03-06T12:00:50.254Z,21.10
2018-03-06T12:03:19.348Z,21.40
2018-03-06T12:05:48.323Z,20.80
2018-03-06T12:08:17.520Z,21.00
2018-03-06T12:10:46.620Z,20.20
2018-03-06T12:13:15.315Z,20.50
2018-03-06T12:15:43.885Z,20.80
2018-03-06T12:18:12.432Z,20.20
2018-03-06T12:20:40.227Z,20.10
2018-03-06T12:23:08.031Z,19.90
2018-03-06T12:25:35.937Z,20.00
2018-03-06T12:28:03.803Z,20.30
2018-03-06T12:30:31.748Z,20.30
2018-03-06T12:32:59.596Z,21.00
2018-03-06T12:35:27.546Z,21.60
2018-03-06T12:37:56.430Z,22.90
2018-03-06T12:40:25.029Z,22.80
2018-03-06T12:42:53.128Z,22.70
2018-03-06T12:45:21.127Z,21.20
2018-03-06T12:47:49.145Z,20.20
2018-03-06T12:50:17.304Z,20.00
2018-03-06T12:52:46.006Z,18.30
2018-03-06T12:55:14.033Z,18.30
2018-03-06T12:57:42.703Z,17.80
2018-03-06T13:00:28.956Z,17.60
2018-03-06T13:02:57.870Z,17.50
2018-03-06T13:05:26.224Z,17.70
2018-03-06T13:07:54.601Z,17.70
2018-03-06T13:10:22.644Z,17.70
2018-03-06T13:12:51.866Z,17.30
2018-03-06T13:15:20.367Z,17.30
2018-03-06T13:17:48.611Z,17.30
2018-03-06T13:20:16.736Z,17.40
2018-03-06T13:22:45.017Z,17.40
2018-03-06T13:25:13.360Z,17.50
2018-03-06T13:27:41.794Z,17.60
2018-03-06T13:30:10.962Z,19.00
2018-03-06T13:32:39.352Z,19.00
2018-03-06T13:35:07.710Z,19.70
2018-03-06T13:37:35.911Z,19.90
2018-03-06T13:40:04.581Z,20.00
2018-03-06T13:42:32.714Z,20.00
2018-03-06T13:45:00.810Z,20.10
2018-03-06T13:47:28.870Z,19.70
2018-03-06T13:49:57.017Z,19.70
2018-03-06T13:52:26.026Z,18.20
2018-03-06T13:54:54.001Z,18.20
2018-03-06T13:57:22.237Z,18.40
2018-03-06T13:59:51.264Z,18.50
2018-03-06T14:02:19.430Z,18.50
2018-03-06T14:04:47.585Z,18.50
2018-03-06T14:07:15.664Z,18.40
2018-03-06T14:09:43.905Z,18.10
2018-03-06T14:12:11.912Z,18.00
2018-03-06T14:14:40.025Z,17.90
2018-03-06T14:17:08.145Z,18.00
2018-03-06T14:19:36.285Z,18.00
2018-03-06T14:22:04.351Z,17.90
2018-03-06T14:24:32.401Z,17.70
2018-03-06T14:27:00.484Z,17.60
2018-03-06T14:29:29.251Z,17.50
2018-03-06T14:31:57.222Z,17.50
2018-03-06T14:34:25.244Z,17.40
2018-03-06T14:36:53.338Z,17.40
2018-03-06T14:39:21.325Z,17.40
2018-03-06T14:41:49.300Z,17.40
2018-03-06T14:44:17.317Z,17.50
2018-03-06T14:46:46.122Z,17.60
2018-03-06T14:49:14.080Z,17.60
2018-03-06T14:51:42.872Z,17.70
2018-03-06T14:54:10.876Z,17.70
2018-03-06T14:56:38.890Z,18.00
2018-03-06T14:59:06.889Z,18.30
2018-03-06T15:01:34.841Z,18.60
2018-03-06T15:04:03.693Z,18.40
2018-03-06T15:06:31.706Z,18.40
2018-03-06T15:08:59.830Z,18.30
2018-03-06T15:11:27.922Z,17.90
2018-03-06T15:13:55.848Z,18.10
2018-03-06T15:16:23.935Z,17.90
2018-03-06T15:18:52.100Z,17.70
2018-03-06T15:21:20.213Z,17.50
2018-03-06T15:23:49.143Z,17.70
2018-03-06T15:26:17.258Z,17.70
2018-03-06T15:28:45.443Z,17.80
2018-03-06T15:31:13.600Z,17.60
2018-03-06T15:33:41.683Z,17.50
2018-03-06T15:36:09.657Z,17.40
2018-03-06T15:38:37.788Z,17.10
2018-03-06T15:41:05.909Z,17.20
2018-03-06T15:43:34.859Z,16.90
2018-03-06T15:46:02.860Z,16.80
2018-03-06T15:48:31.429Z,16.90
2018-03-06T15:50:59.823Z,17.00
2018-03-06T15:53:27.935Z,16.90
2018-03-06T15:55:55.958Z,16.60
2018-03-06T15:58:24.112Z,16.70
2018-03-06T16:00:52.217Z,16.70
2018-03-06T16:03:21.193Z,16.70
2018-03-06T16:05:49.271Z,16.60
2018-03-06T16:08:17.438Z,16.60
2018-03-06T16:10:45.613Z,16.50
2018-03-06T16:13:13.801Z,16.50
2018-03-06T16:15:42.694Z,16.40
2018-03-06T16:18:11.645Z,16.30
2018-03-06T16:20:39.920Z,16.30
2018-03-06T16:23:07.905Z,16.10
2018-03-06T16:25:36.267Z,16.00
2018-03-06T16:28:04.598Z,16.00
2018-03-06T16:30:33.239Z,15.90
2018-03-06T16:33:01.307Z,15.90
2018-03-06T16:35:29.674Z,15.80
2018-03-06T16:37:58.857Z,15.80
2018-03-06T16:40:27.033Z,15.70
2018-03-06T16:42:55.486Z,15.60
2018-03-06T16:45:23.833Z,15.40
2018-03-06T16:47:52.776Z,15.30
2018-03-06T16:50:21.894Z,15.20
2018-03-06T16:52:50.010Z,15.20
2018-03-06T16:55:18.269Z,15.20
2018-03-06T16:57:47.364Z,15.00
2018-03-06T17:00:16.401Z,14.90
2018-03-06T17:02:44.595Z,14.90
2018-03-06T17:05:14.492Z,14.90
2018-03-06T17:07:42.606Z,14.80
2018-03-06T17:10:10.763Z,14.70
2018-03-06T17:12:38.891Z,14.70
2018-03-06T17:15:07.039Z,14.70
2018-03-06T17:17:36.719Z,14.60
2018-03-06T17:20:04.891Z,14.60
2018-03-06T17:22:32.994Z,14.50
2018-03-06T17:25:01.869Z,14.50
2018-03-06T17:27:30.002Z,14.50
2018-03-06T17:29:58.098Z,14.50
2018-03-06T17:32:26.181Z,14.40
2018-03-06T17:34:54.322Z,14.40
2018-03-06T17:37:22.331Z,14.40
2018-03-06T17:39:51.549Z,14.30
2018-03-06T17:42:20.392Z,14.20
2018-03-06T17:44:48.601Z,14.30
2018-03-06T17:47:17.735Z,14.20
2018-03-06T17:49:45.918Z,14.20
2018-03-06T17:52:14.179Z,14.20
2018-03-06T17:54:42.220Z,14.20
2018-03-06T17:57:10.999Z,14.20
2018-03-06T17:59:39.948Z,14.20
2018-03-06T18:02:08.092Z,14.20
2018-03-06T18:04:36.122Z,14.20
2018-03-06T18:07:04.090Z,14.10
2018-03-06T18:09:32.984Z,14.10
2018-03-06T18:12:01.050Z,14.10
2018-03-06T18:14:29.147Z,14.10
2018-03-06T18:16:58.004Z,14.00
2018-03-06T18:19:26.004Z,14.00
2018-03-06T18:21:54.885Z,14.00
2018-03-06T18:24:23.680Z,13.90
2018-03-06T18:26:51.777Z,13.90
2018-03-06T18:29:20.100Z,13.90
2018-03-06T18:31:48.304Z,13.90
2018-03-06T18:34:16.549Z,13.80
2018-03-06T18:36:44.712Z,13.80
2018-03-06T18:39:12.916Z,13.80
2018-03-06T18:41:41.716Z,13.70
2018-03-06T18:44:09.785Z,13.70
2018-03-06T18:46:37.898Z,13.70
2018-03-06T18:49:06.103Z,13.60
2018-03-06T18:51:34.319Z,13.60
2018-03-06T18:54:02.410Z,13.60
2018-03-06T18:56:30.626Z,13.60
2018-03-06T18:58:58.648Z,13.60
2018-03-06T19:01:58.543Z,13.60
2018-03-06T19:04:38.580Z,13.60
2018-03-06T19:07:07.588Z,13.60
2018-03-06T19:09:35.756Z,13.60
2018-03-06T19:12:03.954Z,13.70
2018-03-06T19:14:32.085Z,13.60
2018-03-06T19:17:01.142Z,13.60
2018-03-06T19:19:29.687Z,13.60
2018-03-06T19:21:58.130Z,13.60
2018-03-06T19:24:26.443Z,13.60
2018-03-06T19:26:54.719Z,13.60
2018-03-06T19:29:22.776Z,13.60
2018-03-06T19:31:51.655Z,13.50
2018-03-06T19:34:20.573Z,13.50
2018-03-06T19:36:48.887Z,13.50
2018-03-06T19:39:21.917Z,13.50
2018-03-06T19:41:50.697Z,13.40
2018-03-06T19:44:19.758Z,13.40
2018-03-06T19:46:47.746Z,13.40
2018-03-06T19:49:16.130Z,13.40
2018-03-06T19:51:44.201Z,13.40
2018-03-06T19:54:13.082Z,13.40
2018-03-06T19:56:41.881Z,13.50
2018-03-06T19:59:10.758Z,13.40
2018-03-06T20:01:38.954Z,13.40
2018-03-06T20:04:08.076Z,13.50
2018-03-06T20:06:36.148Z,13.40
2018-03-06T20:09:04.640Z,13.40
2018-03-06T20:11:32.792Z,13.40
2018-03-06T20:14:00.894Z,13.30
2018-03-06T20:16:28.920Z,13.30
2018-03-06T20:19:03.321Z,13.30
2018-03-06T20:21:32.225Z,13.20
2018-03-06T20:24:06.134Z,13.20
2018-03-06T20:26:35.117Z,13.30
2018-03-06T20:29:04.057Z,13.30
2018-03-06T20:31:37.629Z,13.30
2018-03-06T20:34:05.564Z,13.30
